sensor_id;sensor_type;location;lat;lon;timestamp;P1;durP1;ratioP1;P2;durP2;ratioP2
30617;SDS011;17384;51.214;9.202;2023-07-30T00:01:07;4.03;;;3.38;;
30617;SDS011;17384;51.214;9.202;2023-07-30T00:03:32;4.30;;;3.45;;
30617;SDS011;17384;51.214;9.202;2023-07-30T00:05:58;4.57;;;2.78;;
30617;SDS011;17384;51.214;9.202;2023-07-30T00:08:23;5.20;;;3.00;;
30617;SDS011;17384;51.214;9.202;2023-07-30T00:10:49;5.93;;;3.03;;
30617;SDS011;17384;51.214;9.202;2023-07-30T00:13:14;4.32;;;3.15;;
30617;SDS011;17384;51.214;9.202;2023-07-30T00:15:40;8.25;;;3.55;;
30617;SDS011;17384;51.214;9.202;2023-07-30T00:18:06;4.10;;;3.20;;
30617;SDS011;17384;51.214;9.202;2023-07-30T00:20:31;4.65;;;2.97;;
30617;SDS011;17384;51.214;9.202;2023-07-30T00:22:58;6.40;;;3.33;;
30617;SDS011;17384;51.214;9.202;2023-07-30T00:25:24;2.83;;;2.53;;
30617;SDS011;17384;51.214;9.202;2023-07-30T00:27:49;4.28;;;3.13;;
30617;SDS011;17384;51.214;9.202;2023-07-30T00:30:15;6.03;;;2.83;;
30617;SDS011;17384;51.214;9.202;2023-07-30T00:32:40;5.05;;;2.42;;
30617;SDS011;17384;51.214;9.202;2023-07-30T00:35:08;10.38;;;2.92;;
30617;SDS011;17384;51.214;9.202;2023-07-30T00:37:34;5.70;;;3.00;;
30617;SDS011;17384;51.214;9.202;2023-07-30T00:39:59;5.38;;;3.55;;
30617;SDS011;17384;51.214;9.202;2023-07-30T00:42:25;3.35;;;3.05;;
30617;SDS011;17384;51.214;9.202;2023-07-30T00:44:50;4.78;;;3.10;;
30617;SDS011;17384;51.214;9.202;2023-07-30T00:47:15;4.97;;;3.85;;
30617;SDS011;17384;51.214;9.202;2023-07-30T00:49:41;3.95;;;2.78;;
30617;SDS011;17384;51.214;9.202;2023-07-30T00:52:06;5.10;;;2.88;;
30617;SDS011;17384;51.214;9.202;2023-07-30T00:54:32;3.20;;;2.65;;
30617;SDS011;17384;51.214;9.202;2023-07-30T00:56:58;7.28;;;2.97;;
30617;SDS011;17384;51.214;9.202;2023-07-30T00:59:25;3.83;;;2.78;;
30617;SDS011;17384;51.214;9.202;2023-07-30T01:01:51;7.55;;;3.35;;
30617;SDS011;17384;51.214;9.202;2023-07-30T01:04:17;5.68;;;3.03;;
30617;SDS011;17384;51.214;9.202;2023-07-30T01:06:43;4.28;;;3.17;;
30617;SDS011;17384;51.214;9.202;2023-07-30T01:09:09;4.50;;;2.83;;
30617;SDS011;17384;51.214;9.202;2023-07-30T01:11:36;5.15;;;3.10;;
30617;SDS011;17384;51.214;9.202;2023-07-30T01:14:02;3.55;;;3.20;;
30617;SDS011;17384;51.214;9.202;2023-07-30T01:16:30;3.47;;;2.97;;
30617;SDS011;17384;51.214;9.202;2023-07-30T01:18:56;7.32;;;3.40;;
30617;SDS011;17384;51.214;9.202;2023-07-30T01:21:24;3.15;;;2.85;;
30617;SDS011;17384;51.214;9.202;2023-07-30T01:23:49;5.35;;;3.35;;
30617;SDS011;17384;51.214;9.202;2023-07-30T01:26:19;5.63;;;2.88;;
30617;SDS011;17384;51.214;9.202;2023-07-30T01:28:48;3.83;;;2.90;;
30617;SDS011;17384;51.214;9.202;2023-07-30T01:31:16;3.63;;;2.75;;
30617;SDS011;17384;51.214;9.202;2023-07-30T01:33:43;3.97;;;2.80;;
30617;SDS011;17384;51.214;9.202;2023-07-30T01:36:14;4.03;;;3.17;;
30617;SDS011;17384;51.214;9.202;2023-07-30T01:38:41;11.00;;;3.58;;
30617;SDS011;17384;51.214;9.202;2023-07-30T01:41:08;3.45;;;2.88;;
30617;SDS011;17384;51.214;9.202;2023-07-30T01:43:34;9.10;;;3.10;;
30617;SDS011;17384;51.214;9.202;2023-07-30T01:45:59;6.82;;;3.88;;
30617;SDS011;17384;51.214;9.202;2023-07-30T01:48:25;4.25;;;3.15;;
30617;SDS011;17384;51.214;9.202;2023-07-30T01:50:52;6.70;;;4.00;;
30617;SDS011;17384;51.214;9.202;2023-07-30T01:53:17;3.70;;;3.00;;
30617;SDS011;17384;51.214;9.202;2023-07-30T01:55:42;7.93;;;3.13;;
30617;SDS011;17384;51.214;9.202;2023-07-30T01:58:11;6.55;;;3.15;;
30617;SDS011;17384;51.214;9.202;2023-07-30T02:00:38;4.78;;;3.30;;
30617;SDS011;17384;51.214;9.202;2023-07-30T02:03:04;10.02;;;3.03;;
30617;SDS011;17384;51.214;9.202;2023-07-30T02:05:30;6.93;;;3.25;;
30617;SDS011;17384;51.214;9.202;2023-07-30T02:07:55;7.22;;;2.92;;
30617;SDS011;17384;51.214;9.202;2023-07-30T02:10:21;4.70;;;3.30;;
30617;SDS011;17384;51.214;9.202;2023-07-30T02:12:46;8.27;;;3.85;;
30617;SDS011;17384;51.214;9.202;2023-07-30T02:15:12;11.15;;;3.35;;
30617;SDS011;17384;51.214;9.202;2023-07-30T02:17:37;8.65;;;3.78;;
30617;SDS011;17384;51.214;9.202;2023-07-30T02:20:03;9.27;;;3.70;;
30617;SDS011;17384;51.214;9.202;2023-07-30T02:22:28;11.15;;;3.63;;
30617;SDS011;17384;51.214;9.202;2023-07-30T02:24:54;5.40;;;3.33;;
30617;SDS011;17384;51.214;9.202;2023-07-30T02:27:22;8.05;;;4.03;;
30617;SDS011;17384;51.214;9.202;2023-07-30T02:29:47;4.28;;;3.60;;
30617;SDS011;17384;51.214;9.202;2023-07-30T02:32:13;5.53;;;3.85;;
30617;SDS011;17384;51.214;9.202;2023-07-30T02:34:38;5.82;;;4.10;;
30617;SDS011;17384;51.214;9.202;2023-07-30T02:37:04;5.65;;;3.13;;
30617;SDS011;17384;51.214;9.202;2023-07-30T02:39:29;5.43;;;2.70;;
30617;SDS011;17384;51.214;9.202;2023-07-30T02:41:55;6.50;;;2.97;;
30617;SDS011;17384;51.214;9.202;2023-07-30T02:44:20;14.70;;;2.67;;
30617;SDS011;17384;51.214;9.202;2023-07-30T02:46:45;7.93;;;3.58;;
30617;SDS011;17384;51.214;9.202;2023-07-30T02:49:11;7.65;;;2.85;;
30617;SDS011;17384;51.214;9.202;2023-07-30T02:51:36;4.57;;;3.30;;
30617;SDS011;17384;51.214;9.202;2023-07-30T02:54:05;5.60;;;3.20;;
30617;SDS011;17384;51.214;9.202;2023-07-30T02:56:31;5.80;;;3.20;;
30617;SDS011;17384;51.214;9.202;2023-07-30T02:58:57;6.72;;;3.33;;
30617;SDS011;17384;51.214;9.202;2023-07-30T03:01:23;8.95;;;3.50;;
30617;SDS011;17384;51.214;9.202;2023-07-30T03:03:48;5.90;;;3.22;;
30617;SDS011;17384;51.214;9.202;2023-07-30T03:06:14;5.15;;;2.90;;
30617;SDS011;17384;51.214;9.202;2023-07-30T03:08:41;9.85;;;3.28;;
30617;SDS011;17384;51.214;9.202;2023-07-30T03:11:07;5.93;;;2.83;;
30617;SDS011;17384;51.214;9.202;2023-07-30T03:13:33;12.80;;;3.28;;
30617;SDS011;17384;51.214;9.202;2023-07-30T03:15:58;4.63;;;3.05;;
30617;SDS011;17384;51.214;9.202;2023-07-30T03:18:24;6.70;;;3.15;;
30617;SDS011;17384;51.214;9.202;2023-07-30T03:20:49;7.63;;;3.30;;
30617;SDS011;17384;51.214;9.202;2023-07-30T03:23:15;4.28;;;3.25;;
30617;SDS011;17384;51.214;9.202;2023-07-30T03:25:40;5.65;;;3.53;;
30617;SDS011;17384;51.214;9.202;2023-07-30T03:28:06;7.95;;;3.40;;
30617;SDS011;17384;51.214;9.202;2023-07-30T03:30:31;3.75;;;3.00;;
30617;SDS011;17384;51.214;9.202;2023-07-30T03:32:57;7.53;;;3.10;;
30617;SDS011;17384;51.214;9.202;2023-07-30T03:35:22;5.20;;;3.03;;
30617;SDS011;17384;51.214;9.202;2023-07-30T03:37:47;6.57;;;3.30;;
30617;SDS011;17384;51.214;9.202;2023-07-30T03:40:13;8.55;;;3.15;;
30617;SDS011;17384;51.214;9.202;2023-07-30T03:42:38;8.70;;;3.25;;
30617;SDS011;17384;51.214;9.202;2023-07-30T03:45:04;7.80;;;3.00;;
30617;SDS011;17384;51.214;9.202;2023-07-30T03:47:30;5.50;;;3.08;;
30617;SDS011;17384;51.214;9.202;2023-07-30T03:49:55;7.13;;;3.03;;
30617;SDS011;17384;51.214;9.202;2023-07-30T03:52:21;8.32;;;4.30;;
30617;SDS011;17384;51.214;9.202;2023-07-30T03:54:46;5.82;;;4.22;;
30617;SDS011;17384;51.214;9.202;2023-07-30T03:57:11;6.20;;;3.30;;
30617;SDS011;17384;51.214;9.202;2023-07-30T03:59:37;6.60;;;3.25;;
30617;SDS011;17384;51.214;9.202;2023-07-30T04:02:02;4.38;;;3.17;;
30617;SDS011;17384;51.214;9.202;2023-07-30T04:04:29;10.10;;;3.65;;
30617;SDS011;17384;51.214;9.202;2023-07-30T04:06:54;10.70;;;3.72;;
30617;SDS011;17384;51.214;9.202;2023-07-30T04:09:20;9.75;;;3.40;;
30617;SDS011;17384;51.214;9.202;2023-07-30T04:11:45;13.23;;;3.92;;
30617;SDS011;17384;51.214;9.202;2023-07-30T04:14:11;4.60;;;3.45;;
30617;SDS011;17384;51.214;9.202;2023-07-30T04:16:36;7.55;;;3.05;;
30617;SDS011;17384;51.214;9.202;2023-07-30T04:19:02;9.20;;;2.80;;
30617;SDS011;17384;51.214;9.202;2023-07-30T04:21:27;7.35;;;3.38;;
30617;SDS011;17384;51.214;9.202;2023-07-30T04:23:53;6.53;;;3.22;;
30617;SDS011;17384;51.214;9.202;2023-07-30T04:26:18;5.93;;;3.30;;
30617;SDS011;17384;51.214;9.202;2023-07-30T04:28:44;3.88;;;3.00;;
30617;SDS011;17384;51.214;9.202;2023-07-30T04:31:09;8.25;;;3.15;;
30617;SDS011;17384;51.214;9.202;2023-07-30T04:33:34;6.55;;;2.60;;
30617;SDS011;17384;51.214;9.202;2023-07-30T04:36:00;7.53;;;3.17;;
30617;SDS011;17384;51.214;9.202;2023-07-30T04:38:25;4.88;;;3.10;;
30617;SDS011;17384;51.214;9.202;2023-07-30T04:40:51;6.53;;;3.17;;
30617;SDS011;17384;51.214;9.202;2023-07-30T04:43:16;7.53;;;3.17;;
30617;SDS011;17384;51.214;9.202;2023-07-30T04:45:42;3.95;;;3.20;;
30617;SDS011;17384;51.214;9.202;2023-07-30T04:48:08;8.90;;;3.88;;
30617;SDS011;17384;51.214;9.202;2023-07-30T04:50:33;7.15;;;3.65;;
30617;SDS011;17384;51.214;9.202;2023-07-30T04:52:59;9.20;;;4.82;;
30617;SDS011;17384;51.214;9.202;2023-07-30T04:55:24;5.53;;;3.58;;
30617;SDS011;17384;51.214;9.202;2023-07-30T04:57:50;5.38;;;4.07;;
30617;SDS011;17384;51.214;9.202;2023-07-30T05:00:15;5.45;;;3.72;;
30617;SDS011;17384;51.214;9.202;2023-07-30T05:02:41;8.77;;;4.32;;
30617;SDS011;17384;51.214;9.202;2023-07-30T05:05:07;4.32;;;3.20;;
30617;SDS011;17384;51.214;9.202;2023-07-30T05:07:32;6.55;;;3.63;;
30617;SDS011;17384;51.214;9.202;2023-07-30T05:09:58;6.80;;;3.00;;
30617;SDS011;17384;51.214;9.202;2023-07-30T05:12:23;10.93;;;3.10;;
30617;SDS011;17384;51.214;9.202;2023-07-30T05:14:49;8.45;;;3.92;;
30617;SDS011;17384;51.214;9.202;2023-07-30T05:17:14;7.60;;;4.93;;
30617;SDS011;17384;51.214;9.202;2023-07-30T05:19:40;10.80;;;4.70;;
30617;SDS011;17384;51.214;9.202;2023-07-30T05:22:05;9.02;;;5.97;;
30617;SDS011;17384;51.214;9.202;2023-07-30T05:24:32;8.07;;;5.38;;
30617;SDS011;17384;51.214;9.202;2023-07-30T05:26:58;10.90;;;5.35;;
30617;SDS011;17384;51.214;9.202;2023-07-30T05:29:23;10.68;;;5.75;;
30617;SDS011;17384;51.214;9.202;2023-07-30T05:31:49;7.75;;;5.38;;
30617;SDS011;17384;51.214;9.202;2023-07-30T05:34:14;7.82;;;5.30;;
30617;SDS011;17384;51.214;9.202;2023-07-30T05:36:40;6.05;;;5.15;;
30617;SDS011;17384;51.214;9.202;2023-07-30T05:39:05;7.47;;;4.90;;
30617;SDS011;17384;51.214;9.202;2023-07-30T05:41:31;6.07;;;5.13;;
30617;SDS011;17384;51.214;9.202;2023-07-30T05:43:57;8.50;;;4.75;;
30617;SDS011;17384;51.214;9.202;2023-07-30T05:46:22;9.55;;;4.28;;
30617;SDS011;17384;51.214;9.202;2023-07-30T05:48:47;9.65;;;4.47;;
30617;SDS011;17384;51.214;9.202;2023-07-30T05:51:13;7.82;;;4.25;;
30617;SDS011;17384;51.214;9.202;2023-07-30T05:53:38;4.82;;;3.75;;
30617;SDS011;17384;51.214;9.202;2023-07-30T05:56:04;8.80;;;4.70;;
30617;SDS011;17384;51.214;9.202;2023-07-30T05:58:30;9.38;;;5.22;;
30617;SDS011;17384;51.214;9.202;2023-07-30T06:00:56;8.15;;;3.83;;
30617;SDS011;17384;51.214;9.202;2023-07-30T06:03:21;6.32;;;3.45;;
30617;SDS011;17384;51.214;9.202;2023-07-30T06:05:47;6.15;;;3.13;;
30617;SDS011;17384;51.214;9.202;2023-07-30T06:08:12;8.98;;;4.20;;
30617;SDS011;17384;51.214;9.202;2023-07-30T06:10:38;4.97;;;3.45;;
30617;SDS011;17384;51.214;9.202;2023-07-30T06:13:05;6.10;;;3.75;;
30617;SDS011;17384;51.214;9.202;2023-07-30T06:15:31;8.35;;;3.72;;
30617;SDS011;17384;51.214;9.202;2023-07-30T06:17:57;8.32;;;4.40;;
30617;SDS011;17384;51.214;9.202;2023-07-30T06:20:23;5.82;;;4.40;;
30617;SDS011;17384;51.214;9.202;2023-07-30T06:22:48;10.80;;;4.10;;
30617;SDS011;17384;51.214;9.202;2023-07-30T06:25:13;6.75;;;3.75;;
30617;SDS011;17384;51.214;9.202;2023-07-30T06:27:39;7.20;;;3.78;;
30617;SDS011;17384;51.214;9.202;2023-07-30T06:30:04;6.60;;;4.18;;
30617;SDS011;17384;51.214;9.202;2023-07-30T06:32:30;8.60;;;3.95;;
30617;SDS011;17384;51.214;9.202;2023-07-30T06:34:56;11.13;;;4.80;;
30617;SDS011;17384;51.214;9.202;2023-07-30T06:37:21;9.20;;;4.50;;
30617;SDS011;17384;51.214;9.202;2023-07-30T06:39:46;6.18;;;3.75;;
30617;SDS011;17384;51.214;9.202;2023-07-30T06:42:12;7.15;;;3.92;;
30617;SDS011;17384;51.214;9.202;2023-07-30T06:44:37;9.77;;;3.95;;
30617;SDS011;17384;51.214;9.202;2023-07-30T06:47:03;11.23;;;3.90;;
30617;SDS011;17384;51.214;9.202;2023-07-30T06:49:29;11.10;;;5.10;;
30617;SDS011;17384;51.214;9.202;2023-07-30T06:51:54;9.30;;;4.20;;
30617;SDS011;17384;51.214;9.202;2023-07-30T06:54:20;14.10;;;5.63;;
30617;SDS011;17384;51.214;9.202;2023-07-30T06:56:45;8.52;;;4.95;;
30617;SDS011;17384;51.214;9.202;2023-07-30T06:59:11;11.95;;;5.15;;
30617;SDS011;17384;51.214;9.202;2023-07-30T07:01:36;7.57;;;5.00;;
30617;SDS011;17384;51.214;9.202;2023-07-30T07:04:02;17.08;;;5.88;;
30617;SDS011;17384;51.214;9.202;2023-07-30T07:06:27;6.90;;;5.35;;
30617;SDS011;17384;51.214;9.202;2023-07-30T07:08:52;24.42;;;5.57;;
30617;SDS011;17384;51.214;9.202;2023-07-30T07:11:18;12.18;;;5.18;;
30617;SDS011;17384;51.214;9.202;2023-07-30T07:13:44;13.30;;;5.45;;
30617;SDS011;17384;51.214;9.202;2023-07-30T07:16:09;12.27;;;5.57;;
30617;SDS011;17384;51.214;9.202;2023-07-30T07:18:35;6.85;;;5.07;;
30617;SDS011;17384;51.214;9.202;2023-07-30T07:21:00;12.13;;;5.15;;
30617;SDS011;17384;51.214;9.202;2023-07-30T07:23:25;6.90;;;4.47;;
30617;SDS011;17384;51.214;9.202;2023-07-30T07:25:51;11.50;;;5.32;;
30617;SDS011;17384;51.214;9.202;2023-07-30T07:28:17;11.80;;;5.43;;
30617;SDS011;17384;51.214;9.202;2023-07-30T07:30:43;12.30;;;4.78;;
30617;SDS011;17384;51.214;9.202;2023-07-30T07:33:09;7.25;;;5.00;;
30617;SDS011;17384;51.214;9.202;2023-07-30T07:35:38;11.52;;;5.60;;
30617;SDS011;17384;51.214;9.202;2023-07-30T07:38:04;7.07;;;5.38;;
30617;SDS011;17384;51.214;9.202;2023-07-30T07:40:29;11.68;;;5.00;;
30617;SDS011;17384;51.214;9.202;2023-07-30T07:42:55;9.52;;;6.25;;
30617;SDS011;17384;51.214;9.202;2023-07-30T07:45:20;6.60;;;5.10;;
30617;SDS011;17384;51.214;9.202;2023-07-30T07:47:46;8.23;;;4.82;;
30617;SDS011;17384;51.214;9.202;2023-07-30T07:50:11;11.27;;;5.43;;
30617;SDS011;17384;51.214;9.202;2023-07-30T07:52:37;9.63;;;5.95;;
30617;SDS011;17384;51.214;9.202;2023-07-30T07:55:03;9.48;;;5.07;;
30617;SDS011;17384;51.214;9.202;2023-07-30T07:57:29;10.07;;;5.78;;
30617;SDS011;17384;51.214;9.202;2023-07-30T07:59:56;8.50;;;5.93;;
30617;SDS011;17384;51.214;9.202;2023-07-30T08:02:21;13.30;;;6.30;;
30617;SDS011;17384;51.214;9.202;2023-07-30T08:04:47;12.15;;;6.60;;
30617;SDS011;17384;51.214;9.202;2023-07-30T08:07:13;14.43;;;6.95;;
30617;SDS011;17384;51.214;9.202;2023-07-30T08:09:38;11.68;;;6.30;;
30617;SDS011;17384;51.214;9.202;2023-07-30T08:12:04;11.20;;;6.28;;
30617;SDS011;17384;51.214;9.202;2023-07-30T08:14:30;15.35;;;7.45;;
30617;SDS011;17384;51.214;9.202;2023-07-30T08:16:56;8.70;;;6.75;;
30617;SDS011;17384;51.214;9.202;2023-07-30T08:19:21;10.95;;;6.70;;
30617;SDS011;17384;51.214;9.202;2023-07-30T08:21:47;13.50;;;7.40;;
30617;SDS011;17384;51.214;9.202;2023-07-30T08:24:12;14.23;;;8.48;;
30617;SDS011;17384;51.214;9.202;2023-07-30T08:26:38;12.30;;;7.65;;
30617;SDS011;17384;51.214;9.202;2023-07-30T08:29:03;18.02;;;10.27;;
30617;SDS011;17384;51.214;9.202;2023-07-30T08:31:30;13.48;;;8.85;;
30617;SDS011;17384;51.214;9.202;2023-07-30T08:33:56;19.05;;;10.13;;
30617;SDS011;17384;51.214;9.202;2023-07-30T08:36:21;16.55;;;10.27;;
30617;SDS011;17384;51.214;9.202;2023-07-30T08:38:47;14.35;;;9.68;;
30617;SDS011;17384;51.214;9.202;2023-07-30T08:41:12;19.90;;;11.23;;
30617;SDS011;17384;51.214;9.202;2023-07-30T08:43:38;19.63;;;10.25;;
30617;SDS011;17384;51.214;9.202;2023-07-30T08:46:03;17.10;;;11.02;;
30617;SDS011;17384;51.214;9.202;2023-07-30T08:48:29;18.80;;;11.20;;
30617;SDS011;17384;51.214;9.202;2023-07-30T08:50:57;18.88;;;9.73;;
30617;SDS011;17384;51.214;9.202;2023-07-30T08:53:24;17.83;;;10.25;;
30617;SDS011;17384;51.214;9.202;2023-07-30T08:55:51;19.98;;;9.63;;
30617;SDS011;17384;51.214;9.202;2023-07-30T08:58:19;16.95;;;9.10;;
30617;SDS011;17384;51.214;9.202;2023-07-30T09:00:46;16.15;;;8.05;;
30617;SDS011;17384;51.214;9.202;2023-07-30T09:03:15;12.68;;;7.45;;
30617;SDS011;17384;51.214;9.202;2023-07-30T09:05:42;13.48;;;7.63;;
30617;SDS011;17384;51.214;9.202;2023-07-30T09:08:08;20.05;;;7.63;;
30617;SDS011;17384;51.214;9.202;2023-07-30T09:10:35;14.73;;;7.15;;
30617;SDS011;17384;51.214;9.202;2023-07-30T09:13:01;14.23;;;6.88;;
30617;SDS011;17384;51.214;9.202;2023-07-30T09:15:35;8.02;;;6.25;;
30617;SDS011;17384;51.214;9.202;2023-07-30T09:18:05;16.45;;;6.97;;
30617;SDS011;17384;51.214;9.202;2023-07-30T09:20:38;17.38;;;6.30;;
30617;SDS011;17384;51.214;9.202;2023-07-30T09:23:07;12.00;;;6.13;;
30617;SDS011;17384;51.214;9.202;2023-07-30T09:25:34;17.00;;;7.05;;
30617;SDS011;17384;51.214;9.202;2023-07-30T09:28:00;10.73;;;6.25;;
30617;SDS011;17384;51.214;9.202;2023-07-30T09:30:26;10.20;;;5.20;;
30617;SDS011;17384;51.214;9.202;2023-07-30T09:32:55;10.85;;;5.25;;
30617;SDS011;17384;51.214;9.202;2023-07-30T09:35:22;6.78;;;4.90;;
30617;SDS011;17384;51.214;9.202;2023-07-30T09:37:58;13.75;;;5.18;;
30617;SDS011;17384;51.214;9.202;2023-07-30T09:40:37;11.60;;;4.50;;
30617;SDS011;17384;51.214;9.202;2023-07-30T09:43:04;9.02;;;4.68;;
30617;SDS011;17384;51.214;9.202;2023-07-30T09:45:32;14.32;;;4.75;;
30617;SDS011;17384;51.214;9.202;2023-07-30T09:48:01;13.07;;;4.35;;
30617;SDS011;17384;51.214;9.202;2023-07-30T09:50:28;8.65;;;4.65;;
30617;SDS011;17384;51.214;9.202;2023-07-30T09:52:54;13.98;;;5.03;;
30617;SDS011;17384;51.214;9.202;2023-07-30T09:55:21;20.27;;;5.53;;
30617;SDS011;17384;51.214;9.202;2023-07-30T09:57:46;11.13;;;3.75;;
30617;SDS011;17384;51.214;9.202;2023-07-30T10:00:12;16.25;;;4.40;;
30617;SDS011;17384;51.214;9.202;2023-07-30T10:02:39;7.90;;;3.60;;
30617;SDS011;17384;51.214;9.202;2023-07-30T10:05:10;11.70;;;3.55;;
30617;SDS011;17384;51.214;9.202;2023-07-30T10:07:44;10.38;;;3.53;;
30617;SDS011;17384;51.214;9.202;2023-07-30T10:10:17;5.75;;;2.15;;
30617;SDS011;17384;51.214;9.202;2023-07-30T10:12:44;7.07;;;2.30;;
30617;SDS011;17384;51.214;9.202;2023-07-30T10:15:11;5.45;;;2.42;;
30617;SDS011;17384;51.214;9.202;2023-07-30T10:17:37;3.40;;;1.88;;
30617;SDS011;17384;51.214;9.202;2023-07-30T10:20:22;4.75;;;1.98;;
30617;SDS011;17384;51.214;9.202;2023-07-30T10:22:55;4.32;;;1.65;;
30617;SDS011;17384;51.214;9.202;2023-07-30T10:27:52;3.47;;;1.85;;
30617;SDS011;17384;51.214;9.202;2023-07-30T10:30:18;5.32;;;2.28;;
30617;SDS011;17384;51.214;9.202;2023-07-30T10:40:58;7.40;;;2.05;;
30617;SDS011;17384;51.214;9.202;2023-07-30T10:43:28;4.18;;;1.90;;
30617;SDS011;17384;51.214;9.202;2023-07-30T10:45:55;4.40;;;1.88;;
30617;SDS011;17384;51.214;9.202;2023-07-30T10:48:29;4.95;;;2.10;;
30617;SDS011;17384;51.214;9.202;2023-07-30T10:50:56;4.07;;;2.35;;
30617;SDS011;17384;51.214;9.202;2023-07-30T10:53:22;3.70;;;2.13;;
30617;SDS011;17384;51.214;9.202;2023-07-30T10:55:48;4.68;;;2.22;;
30617;SDS011;17384;51.214;9.202;2023-07-30T10:58:14;3.55;;;2.35;;
30617;SDS011;17384;51.214;9.202;2023-07-30T11:00:41;6.50;;;2.67;;
30617;SDS011;17384;51.214;9.202;2023-07-30T11:03:07;3.22;;;2.58;;
30617;SDS011;17384;51.214;9.202;2023-07-30T11:05:32;3.50;;;2.40;;
30617;SDS011;17384;51.214;9.202;2023-07-30T11:07:58;9.70;;;2.65;;
30617;SDS011;17384;51.214;9.202;2023-07-30T11:10:24;5.05;;;2.50;;
30617;SDS011;17384;51.214;9.202;2023-07-30T11:12:49;4.88;;;2.97;;
30617;SDS011;17384;51.214;9.202;2023-07-30T11:15:16;3.38;;;2.60;;
30617;SDS011;17384;51.214;9.202;2023-07-30T11:17:42;5.35;;;2.97;;
30617;SDS011;17384;51.214;9.202;2023-07-30T11:20:21;5.43;;;3.13;;
30617;SDS011;17384;51.214;9.202;2023-07-30T11:22:48;3.13;;;2.72;;
30617;SDS011;17384;51.214;9.202;2023-07-30T11:25:17;6.28;;;3.22;;
30617;SDS011;17384;51.214;9.202;2023-07-30T11:27:45;5.63;;;3.25;;
30617;SDS011;17384;51.214;9.202;2023-07-30T11:30:13;6.82;;;3.45;;
30617;SDS011;17384;51.214;9.202;2023-07-30T11:32:38;5.63;;;3.53;;
30617;SDS011;17384;51.214;9.202;2023-07-30T11:35:04;5.93;;;3.20;;
30617;SDS011;17384;51.214;9.202;2023-07-30T11:37:32;5.18;;;3.58;;
30617;SDS011;17384;51.214;9.202;2023-07-30T11:39:59;6.93;;;3.45;;
30617;SDS011;17384;51.214;9.202;2023-07-30T11:42:25;8.07;;;3.85;;
30617;SDS011;17384;51.214;9.202;2023-07-30T11:44:55;7.38;;;3.47;;
30617;SDS011;17384;51.214;9.202;2023-07-30T11:47:23;6.30;;;4.05;;
30617;SDS011;17384;51.214;9.202;2023-07-30T11:49:56;6.85;;;3.63;;
30617;SDS011;17384;51.214;9.202;2023-07-30T11:54:47;5.65;;;4.20;;
30617;SDS011;17384;51.214;9.202;2023-07-30T11:57:13;5.38;;;4.18;;
30617;SDS011;17384;51.214;9.202;2023-07-30T11:59:39;7.82;;;4.45;;
30617;SDS011;17384;51.214;9.202;2023-07-30T12:02:07;6.13;;;5.03;;
30617;SDS011;17384;51.214;9.202;2023-07-30T12:04:45;6.78;;;3.97;;
30617;SDS011;17384;51.214;9.202;2023-07-30T12:07:10;9.35;;;6.75;;
30617;SDS011;17384;51.214;9.202;2023-07-30T12:09:36;10.10;;;4.40;;
30617;SDS011;17384;51.214;9.202;2023-07-30T12:12:03;7.03;;;5.35;;
30617;SDS011;17384;51.214;9.202;2023-07-30T12:14:29;7.03;;;4.85;;
30617;SDS011;17384;51.214;9.202;2023-07-30T12:17:07;14.63;;;5.70;;
30617;SDS011;17384;51.214;9.202;2023-07-30T12:19:32;6.38;;;4.50;;
30617;SDS011;17384;51.214;9.202;2023-07-30T12:21:58;12.15;;;4.95;;
30617;SDS011;17384;51.214;9.202;2023-07-30T12:24:23;11.38;;;4.97;;
30617;SDS011;17384;51.214;9.202;2023-07-30T12:26:49;9.85;;;4.32;;
30617;SDS011;17384;51.214;9.202;2023-07-30T12:29:14;12.35;;;5.32;;
30617;SDS011;17384;51.214;9.202;2023-07-30T12:31:39;9.02;;;4.82;;
30617;SDS011;17384;51.214;9.202;2023-07-30T12:34:05;12.20;;;4.47;;
30617;SDS011;17384;51.214;9.202;2023-07-30T12:36:30;10.43;;;4.35;;
30617;SDS011;17384;51.214;9.202;2023-07-30T12:38:56;9.35;;;5.32;;
30617;SDS011;17384;51.214;9.202;2023-07-30T12:41:21;6.60;;;3.63;;
30617;SDS011;17384;51.214;9.202;2023-07-30T12:43:54;9.75;;;4.38;;
30617;SDS011;17384;51.214;9.202;2023-07-30T12:46:23;8.18;;;3.65;;
30617;SDS011;17384;51.214;9.202;2023-07-30T12:48:49;9.68;;;3.67;;
30617;SDS011;17384;51.214;9.202;2023-07-30T12:51:14;30.33;;;20.80;;
30617;SDS011;17384;51.214;9.202;2023-07-30T12:53:40;7.97;;;3.30;;
30617;SDS011;17384;51.214;9.202;2023-07-30T12:56:06;15.32;;;4.85;;
30617;SDS011;17384;51.214;9.202;2023-07-30T12:58:32;9.30;;;2.70;;
30617;SDS011;17384;51.214;9.202;2023-07-30T13:00:57;7.07;;;2.83;;
30617;SDS011;17384;51.214;9.202;2023-07-30T13:03:23;8.35;;;2.83;;
30617;SDS011;17384;51.214;9.202;2023-07-30T13:05:48;9.88;;;2.33;;
30617;SDS011;17384;51.214;9.202;2023-07-30T13:08:14;6.20;;;1.90;;
30617;SDS011;17384;51.214;9.202;2023-07-30T13:10:39;5.53;;;1.73;;
30617;SDS011;17384;51.214;9.202;2023-07-30T13:13:05;4.47;;;1.70;;
30617;SDS011;17384;51.214;9.202;2023-07-30T13:15:30;5.78;;;1.95;;
30617;SDS011;17384;51.214;9.202;2023-07-30T13:17:56;7.43;;;2.47;;
30617;SDS011;17384;51.214;9.202;2023-07-30T13:20:21;6.28;;;1.63;;
30617;SDS011;17384;51.214;9.202;2023-07-30T13:22:47;7.00;;;1.70;;
30617;SDS011;17384;51.214;9.202;2023-07-30T13:25:12;7.80;;;1.80;;
30617;SDS011;17384;51.214;9.202;2023-07-30T13:27:38;5.75;;;1.60;;
30617;SDS011;17384;51.214;9.202;2023-07-30T13:30:03;5.97;;;1.80;;
30617;SDS011;17384;51.214;9.202;2023-07-30T13:32:29;4.80;;;2.08;;
30617;SDS011;17384;51.214;9.202;2023-07-30T13:34:54;8.93;;;2.83;;
30617;SDS011;17384;51.214;9.202;2023-07-30T13:37:20;6.28;;;1.75;;
30617;SDS011;17384;51.214;9.202;2023-07-30T13:39:45;7.32;;;1.50;;
30617;SDS011;17384;51.214;9.202;2023-07-30T13:42:11;4.70;;;1.58;;
30617;SDS011;17384;51.214;9.202;2023-07-30T13:44:36;4.38;;;1.35;;
30617;SDS011;17384;51.214;9.202;2023-07-30T13:47:02;7.38;;;1.92;;
30617;SDS011;17384;51.214;9.202;2023-07-30T13:49:27;8.02;;;1.75;;
30617;SDS011;17384;51.214;9.202;2023-07-30T13:51:53;8.35;;;2.05;;
30617;SDS011;17384;51.214;9.202;2023-07-30T13:54:18;7.75;;;2.15;;
30617;SDS011;17384;51.214;9.202;2023-07-30T13:56:44;7.30;;;2.53;;
30617;SDS011;17384;51.214;9.202;2023-07-30T13:59:09;4.95;;;2.47;;
30617;SDS011;17384;51.214;9.202;2023-07-30T14:01:35;5.82;;;1.98;;
30617;SDS011;17384;51.214;9.202;2023-07-30T14:04:00;7.85;;;3.75;;
30617;SDS011;17384;51.214;9.202;2023-07-30T14:06:26;5.72;;;1.50;;
30617;SDS011;17384;51.214;9.202;2023-07-30T14:08:51;5.03;;;1.55;;
30617;SDS011;17384;51.214;9.202;2023-07-30T14:11:17;6.65;;;1.38;;
30617;SDS011;17384;51.214;9.202;2023-07-30T14:13:42;9.10;;;1.67;;
30617;SDS011;17384;51.214;9.202;2023-07-30T14:16:08;3.55;;;1.27;;
30617;SDS011;17384;51.214;9.202;2023-07-30T14:18:33;2.72;;;1.20;;
30617;SDS011;17384;51.214;9.202;2023-07-30T14:20:59;3.25;;;1.38;;
30617;SDS011;17384;51.214;9.202;2023-07-30T14:23:24;4.57;;;1.20;;
30617;SDS011;17384;51.214;9.202;2023-07-30T14:25:50;8.23;;;1.83;;
30617;SDS011;17384;51.214;9.202;2023-07-30T14:28:15;5.28;;;1.25;;
30617;SDS011;17384;51.214;9.202;2023-07-30T14:30:41;3.92;;;1.20;;
30617;SDS011;17384;51.214;9.202;2023-07-30T14:33:09;7.53;;;1.30;;
30617;SDS011;17384;51.214;9.202;2023-07-30T14:35:35;8.75;;;1.55;;
30617;SDS011;17384;51.214;9.202;2023-07-30T14:38:03;4.93;;;1.42;;
30617;SDS011;17384;51.214;9.202;2023-07-30T14:40:29;4.80;;;1.50;;
30617;SDS011;17384;51.214;9.202;2023-07-30T14:42:55;6.03;;;1.58;;
30617;SDS011;17384;51.214;9.202;2023-07-30T14:45:20;4.53;;;1.52;;
30617;SDS011;17384;51.214;9.202;2023-07-30T14:47:46;9.95;;;1.67;;
30617;SDS011;17384;51.214;9.202;2023-07-30T14:50:11;7.63;;;1.63;;